Time;durP1;ratioP1;P1;durP2;ratioP2;P2;SDS_P1;SDS_P2;PMS_P1;PMS_P2;Temp;Humidity;BMP_temperature;BMP_pressure;BME280_temperature;BME280_humidity;BME280_pressure;Samples;Min_cycle;Max_cycle;Signal;HPM_P1;HPM_P2
2023/04/12 00:02:23;;;;;;;7.40;2.05;;;8.60;99.90;;;;;;5133023;27;20035;-69
2023/04/12 00:04:54;;;;;;;9.23;2.15;;;8.60;99.90;;;;;;5132821;27;20508;-69
2023/04/12 00:10:52;;;;;;;10.57;2.20;;;8.70;99.90;;;;;;4932601;29;20499;-69
2023/04/12 00:13:18;;;;;;;6.75;2.15;;;8.70;99.90;;;;;;4933815;28;20086;-69
2023/04/12 00:15:44;;;;;;;8.15;1.90;;;8.70;99.90;;;;;;4933568;29;20105;-71
2023/04/12 00:18:10;;;;;;;10.52;2.10;;;8.70;99.90;;;;;;4933229;29;20048;-69
2023/04/12 00:20:37;;;;;;;6.30;2.22;;;8.70;99.90;;;;;;4933532;29;20069;-68
2023/04/12 00:23:02;;;;;;;9.23;2.15;;;8.80;99.90;;;;;;4933682;29;20051;-66
2023/04/12 00:25:28;;;;;;;7.80;2.25;;;8.80;99.90;;;;;;4933860;29;20058;-70
2023/04/12 00:27:53;;;;;;;7.70;1.95;;;8.80;99.90;;;;;;4932781;29;20059;-71
2023/04/12 00:30:19;;;;;;;9.40;2.00;;;8.80;99.90;;;;;;4933159;29;20051;-69
2023/04/12 00:32:45;;;;;;;6.32;1.75;;;8.80;99.90;;;;;;4947863;28;20656;-72
2023/04/12 00:35:11;;;;;;;7.07;1.88;;;8.80;99.90;;;;;;4934681;29;20044;-66
2023/04/12 00:37:37;;;;;;;6.80;2.00;;;8.80;99.90;;;;;;4932125;29;20039;-66
2023/04/12 00:40:05;;;;;;;9.55;2.30;;;8.80;99.90;;;;;;4931641;29;20144;-66
2023/04/12 00:42:31;;;;;;;10.68;2.08;;;8.80;99.90;;;;;;4915525;29;20078;-69
2023/04/12 00:44:57;;;;;;;9.48;2.28;;;8.80;99.90;;;;;;4931116;28;20047;-66
2023/04/12 00:47:22;;;;;;;10.05;2.33;;;8.80;99.90;;;;;;5005228;27;20047;-73
2023/04/12 00:49:48;;;;;;;9.55;1.95;;;8.80;99.90;;;;;;5115556;27;20111;-71
2023/04/12 00:52:16;;;;;;;2.95;1.98;;;8.80;99.90;;;;;;5101142;27;20412;-67
2023/04/12 00:54:42;;;;;;;5.93;1.75;;;8.80;99.90;;;;;;5114368;27;20477;-71
2023/04/12 00:57:08;;;;;;;9.55;2.03;;;8.80;99.90;;;;;;5114795;27;20100;-69
2023/04/12 00:59:34;;;;;;;5.70;1.58;;;8.80;99.90;;;;;;5097842;27;20043;-72
2023/04/12 01:02:00;;;;;;;7.07;2.20;;;8.80;99.90;;;;;;5100485;27;20430;-70
2023/04/12 01:04:26;;;;;;;7.78;2.50;;;8.80;99.90;;;;;;5115529;27;20035;-72
2023/04/12 01:07:20;;;;;;;6.85;2.00;;;8.70;99.90;;;;;;5114781;27;20054;-70
2023/04/12 01:10:12;;;;;;;8.90;2.60;;;8.70;99.90;;;;;;5115053;27;20080;-69
2023/04/12 01:12:45;;;;;;;6.95;2.53;;;8.70;99.90;;;;;;5113746;27;20069;-70
2023/04/12 01:15:15;;;;;;;8.55;2.17;;;8.60;99.90;;;;;;5115879;27;20062;-70
2023/04/12 01:17:58;;;;;;;10.00;2.40;;;8.70;99.90;;;;;;5148673;27;20035;-70
2023/04/12 01:20:32;;;;;;;7.45;2.00;;;8.60;99.90;;;;;;5118869;27;20103;-72
2023/04/12 01:23:09;;;;;;;9.75;2.20;;;8.60;99.90;;;;;;5112966;27;20062;-68
2023/04/12 01:25:47;;;;;;;9.60;2.35;;;8.60;99.90;;;;;;5114222;27;20062;-71
2023/04/12 01:28:21;;;;;;;8.68;1.85;;;8.60;99.90;;;;;;5114491;27;20192;-69
2023/04/12 01:30:49;;;;;;;7.93;1.90;;;8.60;99.90;;;;;;5116762;27;20078;-67
2023/04/12 01:33:17;;;;;;;7.15;1.80;;;8.60;99.90;;;;;;5117037;27;20058;-68
2023/04/12 01:35:45;;;;;;;6.28;2.30;;;8.50;99.90;;;;;;5114914;27;20156;-72
2023/04/12 01:38:11;;;;;;;8.85;1.90;;;8.50;99.90;;;;;;5097162;27;20561;-72
2023/04/12 01:40:39;;;;;;;7.93;1.95;;;8.50;99.90;;;;;;5114757;27;20124;-70
2023/04/12 01:43:14;;;;;;;6.28;1.80;;;8.50;99.90;;;;;;5115134;27;20518;-70
2023/04/12 01:45:40;;;;;;;6.78;1.60;;;8.50;99.90;;;;;;5133254;27;20115;-70
2023/04/12 01:48:10;;;;;;;9.30;1.88;;;8.50;99.90;;;;;;5149357;27;20036;-69
2023/04/12 01:51:05;;;;;;;7.93;1.40;;;8.40;99.90;;;;;;5114845;27;20050;-70
2023/04/12 01:53:52;;;;;;;4.78;1.63;;;8.50;99.90;;;;;;5152560;27;20070;-69
2023/04/12 01:56:21;;;;;;;8.00;1.95;;;8.40;99.90;;;;;;5124534;27;20043;-71
2023/04/12 01:58:49;;;;;;;9.52;1.70;;;8.40;99.90;;;;;;5128656;27;20058;-68
2023/04/12 02:01:17;;;;;;;8.25;1.70;;;8.40;99.90;;;;;;5117158;27;20517;-72
2023/04/12 02:03:48;;;;;;;5.85;1.40;;;8.40;99.90;;;;;;5111347;28;20031;-70
2023/04/12 02:06:15;;;;;;;12.60;1.95;;;8.40;99.90;;;;;;5094172;28;20047;-68
2023/04/12 02:08:40;;;;;;;7.82;2.03;;;8.40;99.90;;;;;;5112893;27;20085;-67
2023/04/12 02:11:15;;;;;;;8.20;2.08;;;8.30;99.90;;;;;;5110374;28;20044;-70
2023/04/12 02:13:41;;;;;;;7.22;1.75;;;8.30;99.90;;;;;;5093825;28;20039;-71
2023/04/12 02:16:09;;;;;;;5.55;2.35;;;8.30;99.90;;;;;;5110882;28;20031;-66
2023/04/12 02:18:35;;;;;;;6.75;1.73;;;8.30;99.90;;;;;;5110804;28;20047;-67
2023/04/12 02:21:01;;;;;;;8.48;1.90;;;8.40;99.90;;;;;;5093527;28;20071;-70
2023/04/12 02:23:26;;;;;;;7.75;2.08;;;8.30;99.90;;;;;;5110613;27;20032;-70
2023/04/12 02:25:52;;;;;;;6.68;1.67;;;8.30;99.90;;;;;;5110889;28;20051;-68
2023/04/12 02:28:18;;;;;;;9.57;1.50;;;8.40;99.90;;;;;;5110838;28;20047;-68
2023/04/12 02:30:44;;;;;;;3.78;1.40;;;8.30;99.90;;;;;;5110640;27;20069;-71
2023/04/12 02:33:10;;;;;;;3.47;1.38;;;8.30;99.90;;;;;;5116270;27;20092;-68
2023/04/12 02:35:36;;;;;;;8.63;2.22;;;8.40;99.90;;;;;;5117217;27;20455;-68
2023/04/12 02:38:07;;;;;;;6.10;1.63;;;8.30;99.90;;;;;;5110457;27;20032;-66
2023/04/12 02:40:34;;;;;;;8.52;2.60;;;8.30;99.90;;;;;;5110505;28;20118;-67
2023/04/12 02:43:00;;;;;;;4.97;1.70;;;8.30;99.90;;;;;;5096918;28;20047;-70
2023/04/12 02:45:26;;;;;;;5.47;1.70;;;8.30;99.90;;;;;;5109410;28;20366;-70
2023/04/12 02:47:51;;;;;;;6.82;1.80;;;8.30;99.90;;;;;;5110179;27;20409;-71
2023/04/12 02:50:17;;;;;;;6.38;1.60;;;8.30;99.90;;;;;;5108949;28;20031;-71
2023/04/12 02:52:43;;;;;;;4.97;2.00;;;8.20;99.90;;;;;;5109981;27;20493;-69
2023/04/12 02:55:09;;;;;;;9.70;1.85;;;8.20;99.90;;;;;;5109048;27;20055;-68
2023/04/12 02:57:34;;;;;;;4.97;1.55;;;8.20;99.90;;;;;;5108962;28;20051;-69
2023/04/12 03:00:00;;;;;;;8.57;2.13;;;8.20;99.90;;;;;;5108172;27;20509;-71
2023/04/12 03:02:26;;;;;;;11.82;1.92;;;8.20;99.90;;;;;;5110068;28;20043;-68
2023/04/12 03:04:53;;;;;;;4.28;1.40;;;8.20;99.90;;;;;;5109329;28;20044;-68
2023/04/12 03:07:20;;;;;;;6.22;1.80;;;8.20;99.90;;;;;;5118171;27;20039;-70
2023/04/12 03:09:46;;;;;;;5.85;1.55;;;8.20;99.90;;;;;;5122293;27;20042;-68
2023/04/12 03:12:14;;;;;;;4.28;1.65;;;8.20;99.90;;;;;;5130890;27;20042;-68
2023/04/12 03:14:39;;;;;;;4.35;1.35;;;8.20;99.90;;;;;;5125126;27;20042;-69
2023/04/12 03:17:05;;;;;;;5.07;1.20;;;8.20;99.90;;;;;;5109899;27;20529;-69
2023/04/12 03:19:33;;;;;;;6.70;1.30;;;8.20;99.90;;;;;;5124451;27;20043;-69
2023/04/12 03:22:00;;;;;;;7.15;1.60;;;8.20;99.90;;;;;;5130020;27;20043;-70
2023/04/12 03:24:26;;;;;;;4.50;1.13;;;8.20;99.90;;;;;;5131240;27;20047;-70
2023/04/12 03:26:53;;;;;;;7.28;1.67;;;8.20;99.90;;;;;;5112054;27;20035;-71
2023/04/12 03:29:19;;;;;;;4.72;1.20;;;8.20;99.90;;;;;;5109509;28;20703;-73
2023/04/12 03:31:45;;;;;;;6.05;1.65;;;8.20;99.90;;;;;;5092511;28;20100;-68
2023/04/12 03:34:10;;;;;;;8.43;1.85;;;8.20;99.90;;;;;;5110321;28;20039;-69
2023/04/12 03:36:36;;;;;;;4.60;1.45;;;8.20;99.90;;;;;;5108884;28;20035;-69
2023/04/12 03:39:02;;;;;;;7.20;1.48;;;8.20;99.90;;;;;;5109541;28;20486;-69
2023/04/12 03:41:28;;;;;;;6.30;1.77;;;8.20;99.90;;;;;;5111048;28;20080;-66
2023/04/12 03:43:54;;;;;;;4.35;1.85;;;8.20;99.90;;;;;;5121110;27;20066;-68
2023/04/12 03:46:20;;;;;;;8.48;1.80;;;8.20;99.90;;;;;;5110129;27;20070;-67
2023/04/12 03:48:46;;;;;;;6.82;1.45;;;8.20;99.90;;;;;;5109163;28;20551;-67
2023/04/12 03:51:11;;;;;;;5.63;2.00;;;8.30;99.90;;;;;;5109994;28;20043;-71
2023/04/12 03:53:38;;;;;;;8.82;3.30;;;8.20;99.90;;;;;;5109057;28;20050;-70
2023/04/12 03:56:04;;;;;;;5.72;1.83;;;8.30;99.90;;;;;;5124069;28;20114;-71
2023/04/12 03:58:30;;;;;;;6.63;2.05;;;8.20;99.90;;;;;;5114207;28;20471;-71
2023/04/12 04:00:56;;;;;;;6.97;2.00;;;8.20;99.90;;;;;;5109557;28;20043;-70
2023/04/12 04:03:25;;;;;;;5.55;2.13;;;8.20;99.90;;;;;;5113620;28;20118;-70
2023/04/12 04:05:51;;;;;;;5.90;2.05;;;8.20;99.90;;;;;;5114090;28;20035;-70
2023/04/12 04:08:17;;;;;;;5.70;2.10;;;8.20;99.90;;;;;;5111381;28;20062;-69
2023/04/12 04:10:45;;;;;;;5.82;2.30;;;8.20;99.90;;;;;;5109132;28;20043;-67
2023/04/12 04:13:11;;;;;;;5.78;2.33;;;8.10;99.90;;;;;;5109638;28;20047;-69
2023/04/12 04:15:36;;;;;;;6.97;2.65;;;8.10;99.90;;;;;;5109123;28;20031;-72
2023/04/12 04:18:02;;;;;;;7.15;2.90;;;8.10;99.90;;;;;;5107542;28;20111;-68
2023/04/12 04:20:28;;;;;;;6.82;2.70;;;8.10;99.90;;;;;;5109694;28;20062;-70
2023/04/12 04:22:53;;;;;;;7.72;3.03;;;8.10;99.90;;;;;;5122885;27;20546;-68
2023/04/12 04:25:19;;;;;;;10.10;3.95;;;8.10;99.90;;;;;;5110961;28;20050;-68
2023/04/12 04:27:44;;;;;;;9.13;3.85;;;8.10;99.90;;;;;;5120397;27;20369;-69
2023/04/12 04:30:17;;;;;;;9.75;3.90;;;8.10;99.90;;;;;;5114225;28;20046;-69
2023/04/12 04:32:43;;;;;;;8.82;4.00;;;8.00;99.90;;;;;;5110994;28;20038;-72
2023/04/12 04:35:08;;;;;;;5.00;3.60;;;8.00;99.90;;;;;;5112672;28;20032;-72
2023/04/12 04:37:34;;;;;;;9.63;4.10;;;8.00;99.90;;;;;;5113133;28;20416;-69
2023/04/12 04:40:06;;;;;;;8.82;4.55;;;8.00;99.90;;;;;;5115375;27;20047;-66
2023/04/12 04:42:32;;;;;;;;;;;8.00;99.90;;;;;;5119512;27;20031;-70
2023/04/12 04:45:12;;;;;;;7.43;3.85;;;8.00;99.90;;;;;;5119048;27;19915;-71
2023/04/12 04:47:39;;;;;;;7.82;4.00;;;7.90;99.90;;;;;;5133169;27;20107;-71
2023/04/12 04:50:05;;;;;;;7.28;3.85;;;7.90;99.90;;;;;;5115329;27;20375;-67
2023/04/12 04:52:31;;;;;;;7.00;3.70;;;7.90;99.90;;;;;;5125340;27;20503;-68
2023/04/12 04:54:56;;;;;;;10.85;4.32;;;7.80;99.90;;;;;;5132960;27;20118;-68
2023/04/12 04:57:23;;;;;;;8.27;3.45;;;7.80;99.90;;;;;;5135670;27;20435;-72
2023/04/12 04:59:49;;;;;;;8.45;3.10;;;7.80;99.90;;;;;;5109734;27;20042;-70
2023/04/12 05:02:15;;;;;;;11.55;3.40;;;7.80;99.90;;;;;;5115410;27;20049;-69
2023/04/12 05:04:41;;;;;;;7.28;3.15;;;7.80;99.90;;;;;;5115719;27;20118;-69
2023/04/12 05:07:06;;;;;;;8.00;3.50;;;7.70;99.90;;;;;;5132514;27;20038;-70
2023/04/12 05:09:32;;;;;;;6.90;3.10;;;7.70;99.90;;;;;;5131301;27;20039;-72
2023/04/12 05:11:58;;;;;;;6.28;3.00;;;7.70;99.90;;;;;;5124577;27;20035;-71
2023/04/12 05:14:23;;;;;;;5.75;2.80;;;7.70;99.90;;;;;;5143195;27;20039;-72
2023/04/12 05:16:50;;;;;;;8.00;3.50;;;7.60;99.90;;;;;;5118577;27;20034;-67
2023/04/12 05:19:15;;;;;;;6.70;2.80;;;7.60;99.90;;;;;;5114589;27;20087;-71
2023/04/12 05:21:41;;;;;;;7.30;2.90;;;7.60;99.90;;;;;;5117053;27;20127;-66
2023/04/12 05:24:07;;;;;;;6.93;2.78;;;7.60;99.90;;;;;;5113699;27;20503;-68
2023/04/12 05:26:33;;;;;;;6.25;2.97;;;7.60;99.90;;;;;;5097109;27;20126;-70
2023/04/12 05:29:00;;;;;;;7.68;3.00;;;7.60;99.90;;;;;;5114683;27;20038;-68
2023/04/12 05:31:26;;;;;;;5.50;2.63;;;7.60;99.90;;;;;;5114590;27;20508;-69
2023/04/12 05:33:53;;;;;;;9.30;2.60;;;7.50;99.90;;;;;;5112836;27;20106;-67
2023/04/12 05:36:19;;;;;;;7.30;2.20;;;7.60;99.90;;;;;;5115623;27;20049;-69
2023/04/12 05:38:45;;;;;;;4.90;2.13;;;7.60;99.90;;;;;;5115238;27;20534;-66
2023/04/12 05:41:11;;;;;;;5.90;1.95;;;7.60;99.90;;;;;;5114392;27;20127;-69
2023/04/12 05:43:37;;;;;;;4.57;2.28;;;7.60;99.90;;;;;;5114330;27;20517;-68
2023/04/12 05:46:06;;;;;;;5.53;2.20;;;7.50;99.90;;;;;;5113697;27;20039;-68
2023/04/12 05:48:32;;;;;;;8.32;2.17;;;7.60;99.90;;;;;;5112291;27;20071;-67
2023/04/12 05:50:58;;;;;;;3.78;2.10;;;7.60;99.90;;;;;;5114847;27;20131;-68
2023/04/12 05:53:23;;;;;;;5.03;1.70;;;7.50;99.90;;;;;;5114223;27;20477;-67
2023/04/12 05:55:50;;;;;;;4.38;1.80;;;7.50;99.90;;;;;;5111132;27;20042;-68
2023/04/12 05:58:16;;;;;;;3.85;1.75;;;7.50;99.90;;;;;;5097153;27;20085;-68
2023/04/12 06:00:41;;;;;;;5.90;2.45;;;7.50;99.90;;;;;;5114065;27;20047;-68
2023/04/12 06:03:09;;;;;;;5.40;2.05;;;7.50;99.90;;;;;;5113700;27;20124;-73
2023/04/12 06:05:35;;;;;;;4.93;1.98;;;7.50;99.90;;;;;;5112790;27;20069;-69
2023/04/12 06:08:00;;;;;;;5.35;2.00;;;7.50;99.90;;;;;;5113744;27;20042;-71
2023/04/12 06:10:26;;;;;;;3.78;1.98;;;7.50;99.90;;;;;;5113977;27;20428;-69
2023/04/12 06:12:52;;;;;;;3.17;2.10;;;7.60;99.90;;;;;;5112858;27;20039;-69
2023/04/12 06:15:19;;;;;;;6.50;2.38;;;7.60;99.90;;;;;;5108459;27;20039;-68
2023/04/12 06:17:45;;;;;;;5.88;2.72;;;7.50;99.90;;;;;;5118273;27;20118;-70
2023/04/12 06:20:11;;;;;;;3.63;2.00;;;7.60;99.90;;;;;;5112862;27;20477;-70
2023/04/12 06:22:37;;;;;;;5.97;2.60;;;7.50;99.90;;;;;;5110903;27;20073;-68
2023/04/12 06:25:03;;;;;;;5.03;2.55;;;7.60;99.90;;;;;;5113751;27;20062;-72
2023/04/12 06:27:29;;;;;;;4.05;2.13;;;7.60;99.90;;;;;;5112331;27;20039;-68
2023/04/12 06:29:55;;;;;;;3.45;1.95;;;7.60;99.90;;;;;;5113336;27;20061;-66
2023/04/12 06:32:21;;;;;;;5.13;2.20;;;7.60;99.90;;;;;;5114377;27;20043;-71
2023/04/12 06:34:47;;;;;;;4.50;2.00;;;7.60;99.90;;;;;;5119604;27;20031;-70
2023/04/12 06:37:12;;;;;;;5.60;2.53;;;7.60;99.90;;;;;;5111672;27;20401;-69
2023/04/12 06:39:38;;;;;;;4.30;2.13;;;7.60;99.90;;;;;;5113693;27;20409;-67
2023/04/12 06:42:04;;;;;;;5.40;2.40;;;7.60;99.90;;;;;;5112558;27;20475;-71
2023/04/12 06:44:32;;;;;;;5.40;2.58;;;7.60;99.90;;;;;;5094077;27;20039;-66
2023/04/12 06:46:57;;;;;;;4.63;2.15;;;7.60;99.90;;;;;;5122796;27;20046;-71
2023/04/12 06:49:23;;;;;;;6.18;2.60;;;7.60;99.90;;;;;;5113758;27;20039;-66
2023/04/12 06:51:49;;;;;;;4.97;2.15;;;7.60;99.90;;;;;;5113459;27;20043;-69
2023/04/12 06:54:14;;;;;;;5.32;2.70;;;7.70;99.90;;;;;;5112923;27;20042;-68
2023/04/12 06:56:40;;;;;;;4.38;2.35;;;7.60;99.90;;;;;;5113132;27;20039;-71
2023/04/12 06:59:06;;;;;;;6.32;2.80;;;7.70;99.90;;;;;;5092446;28;20046;-69
2023/04/12 07:01:31;;;;;;;5.47;2.90;;;7.60;99.90;;;;;;5109924;28;20082;-69
2023/04/12 07:03:57;;;;;;;4.18;2.65;;;7.70;99.90;;;;;;5109250;28;20473;-69
2023/04/12 07:06:23;;;;;;;5.43;2.90;;;7.70;99.90;;;;;;5109756;28;20461;-70
2023/04/12 07:08:48;;;;;;;5.45;3.40;;;7.60;99.90;;;;;;5109697;28;20035;-70
2023/04/12 07:11:14;;;;;;;6.25;3.72;;;7.70;99.90;;;;;;5092598;28;20627;-71
2023/04/12 07:13:40;;;;;;;6.35;2.83;;;7.70;99.90;;;;;;5109610;28;20039;-68
2023/04/12 07:16:06;;;;;;;6.10;2.60;;;7.60;99.90;;;;;;5109481;28;20051;-67
2023/04/12 07:18:31;;;;;;;4.85;3.55;;;7.70;99.90;;;;;;5109230;28;20149;-66
2023/04/12 07:20:57;;;;;;;4.07;2.97;;;7.70;99.90;;;;;;5109372;28;20036;-71
2023/04/12 07:23:24;;;;;;;7.28;3.10;;;7.70;99.90;;;;;;5109571;28;20122;-69
2023/04/12 07:25:50;;;;;;;5.95;3.35;;;7.70;99.90;;;;;;5108634;28;20056;-67
2023/04/12 07:28:17;;;;;;;4.70;3.45;;;7.70;99.90;;;;;;5109468;28;20036;-67
2023/04/12 07:30:43;;;;;;;5.35;3.22;;;7.70;99.90;;;;;;5111885;27;20048;-69
2023/04/12 07:33:08;;;;;;;6.40;3.55;;;7.70;99.90;;;;;;5090075;28;20084;-70
2023/04/12 07:35:34;;;;;;;4.35;3.10;;;7.80;99.90;;;;;;5109176;28;20429;-68
2023/04/12 07:38:00;;;;;;;4.78;3.30;;;7.80;99.90;;;;;;5107975;28;20561;-68
2023/04/12 07:40:26;;;;;;;4.57;3.60;;;7.80;99.90;;;;;;5109888;28;20035;-69
2023/04/12 07:42:51;;;;;;;5.97;3.47;;;7.80;99.90;;;;;;5109691;28;20505;-68
2023/04/12 07:45:18;;;;;;;6.63;3.90;;;7.80;99.90;;;;;;5109552;28;20047;-71
2023/04/12 07:47:44;;;;;;;4.43;3.70;;;7.80;99.90;;;;;;5109038;28;20039;-72
2023/04/12 07:50:10;;;;;;;5.68;3.90;;;7.80;99.90;;;;;;5092228;28;20051;-69
2023/04/12 07:52:36;;;;;;;5.13;3.97;;;7.80;99.90;;;;;;5109383;28;20038;-67
2023/04/12 07:55:01;;;;;;;5.47;3.60;;;7.90;99.90;;;;;;5110512;27;20563;-68
2023/04/12 07:57:27;;;;;;;3.88;3.53;;;7.90;99.90;;;;;;5116022;27;20379;-70
2023/04/12 07:59:52;;;;;;;4.50;3.75;;;7.90;99.90;;;;;;5115952;27;20063;-69
2023/04/12 08:02:23;;;;;;;4.85;3.90;;;8.00;99.90;;;;;;5098971;27;20051;-69
2023/04/12 08:04:53;;;;;;;5.35;4.00;;;8.00;99.90;;;;;;5098895;27;20055;-72
2023/04/12 08:07:21;;;;;;;5.00;3.90;;;8.00;99.90;;;;;;5098595;27;20055;-69
2023/04/12 08:09:47;;;;;;;4.40;3.83;;;8.00;99.90;;;;;;5115751;27;20050;-71
2023/04/12 08:12:13;;;;;;;4.30;4.00;;;8.00;99.90;;;;;;5115764;27;20065;-69
2023/04/12 08:14:38;;;;;;;5.97;4.88;;;8.10;99.90;;;;;;5116131;27;20047;-73
2023/04/12 08:17:04;;;;;;;5.38;4.65;;;8.10;99.90;;;;;;5115870;27;20038;-71
2023/04/12 08:19:30;;;;;;;6.63;4.90;;;8.10;99.90;;;;;;5115348;27;20125;-69
2023/04/12 08:21:55;;;;;;;5.30;4.80;;;8.10;99.90;;;;;;5115922;27;20637;-70
2023/04/12 08:24:21;;;;;;;5.60;5.07;;;8.20;99.90;;;;;;5115757;27;20054;-69
2023/04/12 08:26:46;;;;;;;6.90;5.65;;;8.30;99.90;;;;;;5116103;27;20040;-68
2023/04/12 08:29:12;;;;;;;7.82;5.40;;;8.20;99.90;;;;;;5115984;27;20050;-69
2023/04/12 08:31:38;;;;;;;6.95;6.03;;;8.30;99.90;;;;;;5115437;27;20035;-68
2023/04/12 08:34:04;;;;;;;6.13;5.53;;;8.20;99.90;;;;;;5099102;28;20470;-70
2023/04/12 08:36:30;;;;;;;6.05;5.47;;;8.20;99.90;;;;;;5115533;27;20036;-69
2023/04/12 08:38:59;;;;;;;6.60;5.60;;;8.20;99.90;;;;;;5115945;27;20542;-68
2023/04/12 08:41:26;;;;;;;8.23;5.47;;;8.20;99.90;;;;;;5098611;27;20549;-70
2023/04/12 08:43:52;;;;;;;6.13;5.35;;;8.30;99.90;;;;;;5115891;27;20173;-69
2023/04/12 08:46:18;;;;;;;6.55;5.72;;;8.30;99.90;;;;;;5115517;27;20055;-70
2023/04/12 08:48:49;;;;;;;6.30;5.70;;;8.40;99.90;;;;;;5098569;27;20031;-69
2023/04/12 08:51:17;;;;;;;5.28;4.68;;;8.50;99.90;;;;;;5115107;27;20074;-67
2023/04/12 08:53:44;;;;;;;5.93;5.32;;;8.60;99.90;;;;;;5098635;27;20112;-68
2023/04/12 08:56:11;;;;;;;5.53;4.85;;;8.60;99.90;;;;;;5114595;27;20486;-71
2023/04/12 08:58:40;;;;;;;5.38;4.88;;;8.70;99.90;;;;;;5121466;27;20103;-68
2023/04/12 09:01:13;;;;;;;5.72;5.18;;;8.70;99.90;;;;;;5134902;27;20152;-67
2023/04/12 09:03:39;;;;;;;5.93;5.32;;;8.70;99.90;;;;;;5113966;27;20039;-70
2023/04/12 09:06:05;;;;;;;5.03;4.50;;;8.80;99.90;;;;;;5097031;27;20147;-70
2023/04/12 09:08:31;;;;;;;6.72;4.72;;;8.90;99.90;;;;;;5109298;28;20139;-66
2023/04/12 09:10:57;;;;;;;4.80;4.25;;;8.90;99.90;;;;;;5110786;28;20123;-68
2023/04/12 09:13:33;;;;;;;4.85;4.30;;;8.90;99.90;;;;;;5111865;28;20040;-68
2023/04/12 09:15:59;;;;;;;5.70;4.45;;;9.00;99.90;;;;;;5095484;28;20490;-71
2023/04/12 09:18:26;;;;;;;5.63;4.10;;;9.20;99.90;;;;;;5112195;28;20050;-72
2023/04/12 09:21:08;;;;;;;4.80;4.30;;;9.20;99.90;;;;;;5111872;28;20054;-67
2023/04/12 09:23:36;;;;;;;6.15;4.10;;;9.40;99.90;;;;;;5111615;28;20039;-69
2023/04/12 09:26:03;;;;;;;5.85;4.00;;;9.60;99.90;;;;;;5124995;27;20039;-71
2023/04/12 09:28:30;;;;;;;4.85;3.80;;;9.70;99.90;;;;;;5132830;27;20485;-72
2023/04/12 09:30:57;;;;;;;4.65;3.55;;;9.60;99.90;;;;;;5133420;27;20039;-71
2023/04/12 09:33:36;;;;;;;5.53;3.60;;;9.60;99.90;;;;;;5131936;27;20031;-69
2023/04/12 09:36:13;;;;;;;5.22;3.97;;;9.60;99.90;;;;;;5110752;28;20034;-69
2023/04/12 09:38:40;;;;;;;5.80;3.53;;;9.60;99.90;;;;;;5111858;28;20486;-73
2023/04/12 09:41:29;;;;;;;6.22;3.28;;;9.80;99.90;;;;;;5111629;28;20043;-66
2023/04/12 09:43:55;;;;;;;5.75;3.65;;;9.90;99.90;;;;;;5111414;28;20445;-67
2023/04/12 09:46:21;;;;;;;8.32;3.42;;;10.00;99.90;;;;;;5125788;27;20039;-68
2023/04/12 09:48:54;;;;;;;5.40;3.08;;;10.20;99.90;;;;;;5132403;27;20552;-69
2023/04/12 09:51:38;;;;;;;6.55;3.17;;;10.30;99.90;;;;;;5132237;27;20035;-67
2023/04/12 09:54:05;;;;;;;10.82;3.30;;;10.50;99.90;;;;;;5103512;27;20108;-67
2023/04/12 09:56:34;;;;;;;7.55;2.90;;;10.70;99.90;;;;;;5115940;27;20432;-71
2023/04/12 09:59:03;;;;;;;6.22;2.92;;;10.80;99.90;;;;;;5111373;28;20120;-70
2023/04/12 10:01:37;;;;;;;8.23;3.22;;;10.90;99.90;;;;;;5112352;27;20047;-70
2023/04/12 10:04:06;;;;;;;7.63;3.20;;;11.20;99.90;;;;;;5115282;27;20035;-68
2023/04/12 10:06:33;;;;;;;9.90;3.83;;;11.20;99.90;;;;;;5111446;28;20440;-68
2023/04/12 10:09:01;;;;;;;7.85;2.55;;;11.30;99.90;;;;;;5118542;27;20038;-67
2023/04/12 10:11:28;;;;;;;6.97;2.72;;;11.70;99.90;;;;;;5120455;27;20032;-68
2023/04/12 10:13:55;;;;;;;7.25;2.58;;;11.70;99.90;;;;;;5120683;27;20035;-69
2023/04/12 10:16:21;;;;;;;8.57;3.10;;;11.70;99.90;;;;;;5127270;27;20038;-68
2023/04/12 10:18:49;;;;;;;6.13;2.20;;;11.80;99.90;;;;;;5108701;27;20054;-70
2023/04/12 10:21:15;;;;;;;10.88;3.08;;;12.20;99.90;;;;;;5131339;27;20086;-68
2023/04/12 10:23:44;;;;;;;6.15;2.90;;;12.30;99.90;;;;;;5123928;27;20043;-69
2023/04/12 10:26:10;;;;;;;11.68;2.42;;;12.30;99.90;;;;;;5131143;27;20051;-64
2023/04/12 10:28:35;;;;;;;9.43;2.40;;;12.50;99.90;;;;;;5112906;27;20075;-69
2023/04/12 10:31:29;;;;;;;8.70;2.42;;;12.90;99.90;;;;;;5110603;28;20070;-65
2023/04/12 10:33:55;;;;;;;9.68;2.10;;;13.20;99.90;;;;;;5110554;28;20110;-67
2023/04/12 10:36:50;;;;;;;7.90;2.20;;;13.50;99.90;;;;;;5110433;28;20114;-69
2023/04/12 10:39:15;;;;;;;10.98;2.28;;;13.50;99.90;;;;;;5119294;27;20122;-67
2023/04/12 10:42:17;;;;;;;8.38;1.95;;;13.40;99.90;;;;;;5110386;28;20118;-71
2023/04/12 10:44:43;;;;;;;8.77;2.30;;;13.00;99.90;;;;;;5096178;27;20093;-70
2023/04/12 10:47:10;;;;;;;6.32;2.20;;;12.70;99.90;;;;;;5129383;27;20027;-68
2023/04/12 10:49:36;;;;;;;10.45;2.47;;;12.40;99.90;;;;;;5119510;27;20050;-68
2023/04/12 10:52:08;;;;;;;8.57;2.28;;;12.30;99.90;;;;;;5120967;27;20044;-66
2023/04/12 10:54:35;;;;;;;8.97;2.40;;;12.20;99.90;;;;;;5128414;27;20082;-68
2023/04/12 10:57:02;;;;;;;11.50;2.50;;;12.20;99.90;;;;;;5118427;27;20284;-65
2023/04/12 10:59:51;;;;;;;10.65;2.17;;;12.60;99.90;;;;;;5113139;27;20054;-68
2023/04/12 11:02:16;;;;;;;8.65;2.03;;;12.90;99.90;;;;;;5115909;27;20048;-69
2023/04/12 11:05:08;;;;;;;12.50;2.20;;;12.80;99.90;;;;;;5130073;27;20054;-67
2023/04/12 11:07:39;;;;;;;15.67;3.53;;;12.70;99.90;;;;;;5130796;27;20046;-67
2023/04/12 11:10:13;;;;;;;8.32;2.67;;;12.70;99.90;;;;;;5130090;27;20398;-69
2023/04/12 11:12:40;;;;;;;10.65;2.10;;;12.80;99.90;;;;;;5110369;28;20043;-69
2023/04/12 11:15:10;;;;;;;10.02;2.00;;;13.30;99.90;;;;;;5110208;28;20074;-68
2023/04/12 11:17:36;;;;;;;10.02;2.13;;;13.40;99.90;;;;;;5092959;28;20101;-70
2023/04/12 11:20:03;;;;;;;12.77;2.55;;;13.30;99.90;;;;;;5110100;28;20032;-69
2023/04/12 11:22:31;;;;;;;9.48;2.40;;;13.10;99.90;;;;;;5092442;28;20065;-67
2023/04/12 11:25:01;;;;;;;8.88;2.40;;;13.20;99.90;;;;;;5092891;28;20126;-67
2023/04/12 11:27:28;;;;;;;8.23;2.13;;;13.30;99.90;;;;;;5092870;28;20086;-69
2023/04/12 11:29:56;;;;;;;9.00;2.15;;;13.10;99.90;;;;;;5109332;28;20078;-68
2023/04/12 11:32:23;;;;;;;8.57;2.67;;;12.90;99.90;;;;;;5109448;28;20067;-69
2023/04/12 11:34:49;;;;;;;8.40;2.17;;;12.80;99.90;;;;;;5109376;28;20051;-69
2023/04/12 11:37:18;;;;;;;10.15;2.30;;;12.70;99.90;;;;;;5093019;28;20043;-67
2023/04/12 11:39:45;;;;;;;10.38;2.15;;;12.80;99.90;;;;;;5109504;28;20397;-69
2023/04/12 11:42:18;;;;;;;12.48;2.45;;;12.90;99.90;;;;;;5108858;28;20091;-69
2023/04/12 11:44:45;;;;;;;8.07;1.60;;;12.80;99.90;;;;;;5109402;28;20047;-67
2023/04/12 11:47:19;;;;;;;7.35;1.63;;;12.70;99.90;;;;;;5109574;28;20039;-67
2023/04/12 11:49:47;;;;;;;12.25;2.30;;;12.70;99.90;;;;;;5109328;28;20035;-69
2023/04/12 11:52:15;;;;;;;11.57;1.85;;;12.80;99.90;;;;;;5109636;28;20044;-69
2023/04/12 11:54:50;;;;;;;9.55;1.83;;;12.80;99.90;;;;;;5109318;28;20443;-71
2023/04/12 11:57:19;;;;;;;9.50;2.08;;;13.10;99.90;;;;;;5109429;28;20079;-70
2023/04/12 11:59:47;;;;;;;9.02;1.90;;;13.40;99.90;;;;;;5092191;28;20151;-67
2023/04/12 12:02:14;;;;;;;12.68;2.25;;;13.50;99.90;;;;;;5116488;28;20043;-68
2023/04/12 12:04:43;;;;;;;9.30;1.95;;;13.70;99.90;;;;;;5099314;28;20509;-69
2023/04/12 12:07:11;;;;;;;11.32;2.35;;;13.70;99.90;;;;;;5109462;28;20062;-68
2023/04/12 12:09:39;;;;;;;11.77;2.15;;;13.60;99.90;;;;;;5109550;28;20039;-68
2023/04/12 12:12:05;;;;;;;12.98;2.63;;;13.50;99.90;;;;;;5092484;28;20122;-66
2023/04/12 12:14:34;;;;;;;13.63;2.95;;;13.30;99.90;;;;;;5108746;28;20028;-71
2023/04/12 12:17:01;;;;;;;10.10;2.00;;;13.40;99.90;;;;;;5122123;28;20058;-69
2023/04/12 12:19:35;;;;;;;8.27;2.15;;;13.10;99.90;;;;;;5092222;28;20107;-70
2023/04/12 12:22:21;;;;;;;11.43;2.58;;;12.80;99.90;;;;;;5109548;28;20039;-70
2023/04/12 12:24:57;;;;;;;13.15;2.35;;;12.40;99.90;;;;;;5091447;28;20075;-69
2023/04/12 12:27:32;;;;;;;11.35;2.30;;;12.30;99.90;;;;;;5122338;28;20050;-71
2023/04/12 12:30:00;;;;;;;13.95;2.28;;;12.50;99.90;;;;;;5129275;28;20092;-68
2023/04/12 12:32:32;;;;;;;10.85;1.70;;;12.30;99.90;;;;;;5130001;28;20659;-70
2023/04/12 12:34:57;;;;;;;14.38;2.05;;;12.40;99.90;;;;;;5112301;28;20114;-68
2023/04/12 12:37:25;;;;;;;10.05;1.80;;;12.50;99.90;;;;;;5111840;28;20502;-70
2023/04/12 12:40:15;;;;;;;10.55;1.92;;;12.60;99.90;;;;;;5113679;28;20367;-69
2023/04/12 12:42:53;;;;;;;10.82;2.20;;;13.00;99.90;;;;;;5132736;27;20517;-69
2023/04/12 12:45:21;;;;;;;10.13;2.40;;;12.70;99.90;;;;;;5133376;27;20053;-69
2023/04/12 12:47:52;;;;;;;11.10;2.13;;;12.50;99.90;;;;;;5116598;27;20043;-68
2023/04/12 12:50:23;;;;;;;12.23;2.30;;;12.30;99.90;;;;;;5112752;28;20119;-67
2023/04/12 12:52:49;;;;;;;12.88;2.45;;;12.20;99.90;;;;;;5112616;28;20035;-67
2023/04/12 12:55:15;;;;;;;12.38;2.30;;;12.10;99.90;;;;;;5112536;28;20038;-70
2023/04/12 12:57:45;;;;;;;10.52;2.15;;;12.00;99.90;;;;;;5122043;27;20351;-69
2023/04/12 13:00:13;;;;;;;10.07;2.00;;;12.00;99.90;;;;;;5136655;27;20082;-66
2023/04/12 13:02:40;;;;;;;13.32;2.83;;;11.90;99.90;;;;;;5136708;27;20035;-71